CYVO

Val-D'or Airport

Val-D'or, , Canada
METAR CYVO 170300Z AUTO 18002KT 9SM CLR 15/12 A3001 RMK SLP172 DENSITY ALT 1200FT
Observed Flight Rules
Aug-17 @ 03:00 UTC (60 minutes ago) Visual Flight Rules
Wind Visibility Clouds
180° at 2 knots 9 miles
  • Clear skies
Temperatures Readings
Current 15°C / 59°F
Dewpoint 12°C / 54°F
Humidity 82%
Altimeter 30.01" Hg
Pressure 1017.2 hPa
Elevation 337
METAR CYVO 170300Z AUTO 18002KT 9SM CLR 15/12 A3001 RMK SLP172 DENSITY ALT 1200FT
Observed Flight Rules
Aug-17 @ 03:00 UTC
(60 minutes ago)
VFR
Wind Visibility
180° at 2 knots 9 miles
Clouds
  • Clear skies
Temperature Dewpoint
15°C / 59°F 12°C / 54°F
Humidity Altimeter Pressure
82% 30.01" Hg 1017.2 hPa